createdAt,value
2018-12-13T00:00:46.446Z,94.70
2018-12-13T00:03:13.917Z,94.90
2018-12-13T00:05:41.364Z,95.30
2018-12-13T00:08:08.842Z,95.70
2018-12-13T00:10:36.396Z,96.00
2018-12-13T00:13:03.868Z,96.20
2018-12-13T00:15:31.320Z,96.30
2018-12-13T00:17:58.784Z,96.10
2018-12-13T00:20:26.302Z,95.70
2018-12-13T00:22:53.960Z,95.10
2018-12-13T00:25:21.407Z,95.10
2018-12-13T00:27:49.017Z,95.30
2018-12-13T00:30:16.470Z,95.50
2018-12-13T00:32:43.933Z,95.50
2018-12-13T00:35:11.505Z,95.70
2018-12-13T00:37:38.965Z,96.00
2018-12-13T00:40:06.752Z,95.70
2018-12-13T00:42:34.226Z,95.60
2018-12-13T00:45:01.678Z,95.30
2018-12-13T00:47:29.133Z,95.00
2018-12-13T00:49:56.606Z,95.00
2018-12-13T00:52:24.057Z,94.70
2018-12-13T00:54:51.526Z,94.60
2018-12-13T00:57:18.980Z,94.40
2018-12-13T00:59:46.451Z,94.10
2018-12-13T01:02:13.888Z,93.90
2018-12-13T01:04:41.353Z,93.90
2018-12-13T01:07:08.804Z,92.90
2018-12-13T01:09:36.264Z,92.30
2018-12-13T01:12:03.713Z,92.30
2018-12-13T01:14:31.284Z,91.60
2018-12-13T01:16:58.729Z,91.30
2018-12-13T01:19:26.188Z,90.60
2018-12-13T01:21:53.636Z,90.40
2018-12-13T01:24:21.165Z,89.70
2018-12-13T01:26:48.626Z,89.70
2018-12-13T01:29:16.086Z,89.50
2018-12-13T01:31:43.538Z,89.10
2018-12-13T01:34:10.980Z,89.20
2018-12-13T01:36:38.434Z,89.40
2018-12-13T01:39:06.053Z,88.50
2018-12-13T01:41:33.518Z,89.40
2018-12-13T01:44:00.961Z,89.60
2018-12-13T01:46:28.415Z,90.30
2018-12-13T01:48:55.872Z,90.30
2018-12-13T01:51:23.489Z,90.30
2018-12-13T01:53:50.988Z,90.30
2018-12-13T01:56:18.452Z,90.30
2018-12-13T01:58:45.908Z,89.60
2018-12-13T02:01:13.368Z,87.50
2018-12-13T02:03:40.820Z,86.30
2018-12-13T02:06:08.284Z,86.30
2018-12-13T02:08:35.736Z,86.70
2018-12-13T02:11:03.290Z,86.30
2018-12-13T02:13:30.739Z,86.00
2018-12-13T02:15:58.220Z,87.60
2018-12-13T02:18:25.664Z,87.00
2018-12-13T02:20:53.122Z,87.80
2018-12-13T02:23:20.572Z,87.20
2018-12-13T02:25:48.033Z,86.00
2018-12-13T02:28:15.496Z,85.90
2018-12-13T02:30:42.957Z,86.40
2018-12-13T02:33:10.435Z,85.90
2018-12-13T02:35:37.883Z,87.30
2018-12-13T02:38:05.349Z,86.20
2018-12-13T02:40:32.866Z,86.30
2018-12-13T02:43:00.328Z,87.20
2018-12-13T02:45:27.787Z,89.50
2018-12-13T02:47:55.245Z,90.10
2018-12-13T02:50:22.697Z,90.10
2018-12-13T02:52:50.164Z,90.30
2018-12-13T02:55:17.618Z,90.10
2018-12-13T02:57:45.088Z,89.60
2018-12-13T03:00:12.883Z,88.30
2018-12-13T03:02:40.353Z,90.30
2018-12-13T03:05:07.876Z,90.00
2018-12-13T03:07:35.345Z,90.90
2018-12-13T03:10:02.969Z,90.50
2018-12-13T03:12:30.434Z,90.30
2018-12-13T03:14:57.906Z,90.10
2018-12-13T03:17:25.361Z,90.00
2018-12-13T03:19:52.840Z,90.00
2018-12-13T03:22:20.292Z,88.60
2018-12-13T03:24:47.757Z,89.20
2018-12-13T03:27:15.236Z,90.00
2018-12-13T03:29:42.793Z,90.00
2018-12-13T03:32:10.767Z,90.40
2018-12-13T03:34:38.245Z,90.10
2018-12-13T03:37:05.688Z,89.50
2018-12-13T03:39:33.169Z,89.10
2018-12-13T03:42:00.795Z,89.40
2018-12-13T03:44:28.264Z,90.10
2018-12-13T03:46:55.726Z,90.00
2018-12-13T03:49:23.192Z,87.80
2018-12-13T03:51:50.656Z,87.80
2018-12-13T03:54:18.133Z,87.80
2018-12-13T03:56:45.592Z,87.80
2018-12-13T03:59:13.077Z,86.10
2018-12-13T04:01:40.557Z,85.80
2018-12-13T04:04:08.015Z,88.00
2018-12-13T04:06:35.494Z,88.40
2018-12-13T04:09:03.480Z,88.70
2018-12-13T04:11:30.949Z,86.90
2018-12-13T04:13:58.401Z,87.20
2018-12-13T04:16:25.861Z,85.80
2018-12-13T04:18:53.313Z,86.00
2018-12-13T04:21:20.787Z,88.00
2018-12-13T04:23:48.242Z,90.00
2018-12-13T04:26:15.708Z,90.20
2018-12-13T04:28:43.156Z,90.60
2018-12-13T04:31:10.625Z,90.40
2018-12-13T04:33:38.072Z,90.30
2018-12-13T04:36:05.626Z,90.50
2018-12-13T04:38:33.112Z,90.30
2018-12-13T04:41:00.582Z,90.00
2018-12-13T04:43:28.057Z,90.00
2018-12-13T04:45:55.512Z,87.30
2018-12-13T04:48:22.997Z,85.90
2018-12-13T04:50:50.449Z,86.70
2018-12-13T04:53:17.976Z,88.10
2018-12-13T04:55:45.508Z,86.50
2018-12-13T04:58:12.985Z,85.90
2018-12-13T05:00:40.436Z,87.20
2018-12-13T05:03:07.913Z,86.70
2018-12-13T05:05:35.368Z,88.00
2018-12-13T05:08:02.837Z,86.70
2018-12-13T05:10:42.349Z,86.00
2018-12-13T05:13:09.828Z,85.60
2018-12-13T05:15:37.276Z,86.70
2018-12-13T05:18:04.832Z,87.60
2018-12-13T05:20:32.293Z,86.50
2018-12-13T05:22:59.761Z,86.80
2018-12-13T05:25:27.221Z,87.90
2018-12-13T05:27:54.692Z,88.60
2018-12-13T05:30:22.148Z,88.10
2018-12-13T05:32:49.616Z,88.80
2018-12-13T05:35:17.083Z,89.10
2018-12-13T05:37:48.250Z,89.30
2018-12-13T05:40:14.004Z,88.00
2018-12-13T05:42:41.476Z,86.50
2018-12-13T05:45:09.067Z,86.20
2018-12-13T05:47:36.717Z,87.20
2018-12-13T05:50:04.506Z,86.30
2018-12-13T05:52:31.971Z,86.30
2018-12-13T05:54:59.429Z,87.80
2018-12-13T05:57:26.901Z,86.40
2018-12-13T05:59:54.460Z,86.20
2018-12-13T06:02:21.930Z,86.30
2018-12-13T06:04:49.389Z,84.50
2018-12-13T06:07:16.867Z,84.10
2018-12-13T06:09:44.321Z,85.60
2018-12-13T06:12:11.793Z,85.50
2018-12-13T06:14:39.249Z,86.00
2018-12-13T06:17:06.719Z,87.00
2018-12-13T06:19:34.177Z,87.90
2018-12-13T06:22:01.639Z,88.10
2018-12-13T06:24:29.110Z,90.10
2018-12-13T06:26:56.580Z,89.10
2018-12-13T06:29:24.047Z,89.70
2018-12-13T06:31:51.514Z,89.20
2018-12-13T06:34:18.980Z,89.60
2018-12-13T06:36:46.460Z,88.80
2018-12-13T06:39:13.934Z,89.70
2018-12-13T06:41:41.388Z,89.20
2018-12-13T06:44:08.852Z,89.70
2018-12-13T06:46:36.309Z,89.70
2018-12-13T06:49:03.774Z,89.40
2018-12-13T06:51:31.231Z,88.80
2018-12-13T06:53:58.699Z,87.50
2018-12-13T06:56:26.321Z,87.60
2018-12-13T06:58:53.790Z,88.50
2018-12-13T07:01:21.244Z,87.60
2018-12-13T07:03:48.713Z,87.80
2018-12-13T07:06:16.169Z,87.40
2018-12-13T07:08:43.753Z,86.10
2018-12-13T07:11:11.222Z,86.60
2018-12-13T07:13:38.688Z,85.70
2018-12-13T07:16:06.144Z,85.20
2018-12-13T07:18:33.620Z,86.20
2018-12-13T07:21:01.077Z,85.80
2018-12-13T07:23:30.489Z,86.10
2018-12-13T07:25:57.949Z,84.40
2018-12-13T07:28:25.412Z,83.60
2018-12-13T07:30:52.972Z,85.30
2018-12-13T07:33:20.452Z,86.00
2018-12-13T07:35:47.992Z,87.30
2018-12-13T07:38:15.464Z,87.30
2018-12-13T07:40:42.984Z,87.30
2018-12-13T07:43:10.560Z,86.30
2018-12-13T07:45:38.020Z,86.90
2018-12-13T07:48:05.495Z,86.30
2018-12-13T07:50:32.966Z,84.80
2018-12-13T07:53:00.416Z,84.10
2018-12-13T07:55:27.897Z,85.70
2018-12-13T07:57:55.468Z,86.80
2018-12-13T08:00:22.942Z,85.80
2018-12-13T08:02:50.405Z,84.30
2018-12-13T08:05:17.940Z,84.80
2018-12-13T08:07:45.408Z,84.70
2018-12-13T08:10:12.896Z,82.90
2018-12-13T08:12:40.352Z,83.40
2018-12-13T08:15:07.897Z,84.30
2018-12-13T08:17:35.350Z,82.70
2018-12-13T08:20:03.185Z,81.60
2018-12-13T08:22:30.636Z,79.20
2018-12-13T08:24:58.112Z,77.10
2018-12-13T08:27:26.547Z,79.90
2018-12-13T08:29:54.019Z,77.20
2018-12-13T08:32:21.471Z,75.60
2018-12-13T08:34:48.942Z,77.30
2018-12-13T08:37:16.396Z,76.60
2018-12-13T08:39:43.871Z,75.60
2018-12-13T08:42:11.324Z,75.60
2018-12-13T08:44:38.797Z,76.70
2018-12-13T08:47:07.210Z,75.00
2018-12-13T08:49:34.676Z,73.30
2018-12-13T08:52:02.127Z,73.20
2018-12-13T08:54:29.637Z,73.30
2018-12-13T08:56:57.088Z,72.30
2018-12-13T08:59:24.560Z,72.00
2018-12-13T09:01:52.840Z,71.80
2018-12-13T09:04:20.616Z,69.10
2018-12-13T09:06:48.068Z,69.10
2018-12-13T09:09:15.533Z,65.70
2018-12-13T09:11:42.985Z,66.50
2018-12-13T09:14:10.444Z,64.60
2018-12-13T09:16:37.929Z,62.40
2018-12-13T09:19:05.388Z,62.70
2018-12-13T09:21:32.859Z,63.40
2018-12-13T09:24:00.416Z,64.60
2018-12-13T09:26:27.873Z,61.30
2018-12-13T09:28:55.322Z,62.70
2018-12-13T09:31:22.784Z,61.70
2018-12-13T09:33:50.243Z,62.70
2018-12-13T09:36:17.781Z,62.80
2018-12-13T09:38:45.228Z,61.70
2018-12-13T09:41:12.800Z,60.70
2018-12-13T09:43:40.249Z,57.70
2018-12-13T09:46:07.714Z,56.20
2018-12-13T09:48:35.213Z,57.40
2018-12-13T09:51:02.679Z,58.10
2018-12-13T09:53:30.128Z,58.00
2018-12-13T09:55:57.594Z,57.20
2018-12-13T09:58:25.049Z,55.90
2018-12-13T10:00:52.524Z,56.10
2018-12-13T10:03:19.976Z,54.80
2018-12-13T10:05:47.441Z,55.90
2018-12-13T10:08:14.891Z,54.60
2018-12-13T10:10:42.468Z,53.40
2018-12-13T10:13:10.806Z,53.50
2018-12-13T10:15:38.491Z,52.90
2018-12-13T10:18:05.935Z,49.90
2018-12-13T10:20:33.400Z,52.90
2018-12-13T10:23:00.849Z,51.20
2018-12-13T10:25:28.317Z,51.60
2018-12-13T10:27:55.765Z,52.40
2018-12-13T10:30:23.235Z,53.70
2018-12-13T10:32:50.757Z,51.10
2018-12-13T10:35:18.218Z,50.70
2018-12-13T10:37:45.952Z,50.80
2018-12-13T10:40:13.424Z,51.00
2018-12-13T10:42:40.876Z,48.70
2018-12-13T10:45:08.923Z,47.00
2018-12-13T10:47:36.394Z,49.30
2018-12-13T10:50:05.483Z,50.60
2018-12-13T10:52:32.944Z,48.00
2018-12-13T10:55:00.397Z,48.70
2018-12-13T10:57:27.857Z,48.10
2018-12-13T10:59:55.303Z,48.10
2018-12-13T11:02:28.385Z,48.00
2018-12-13T11:04:55.844Z,48.20
2018-12-13T11:07:23.304Z,48.10
2018-12-13T11:09:50.748Z,45.30
2018-12-13T11:12:18.209Z,49.50
2018-12-13T11:14:45.660Z,42.50
2018-12-13T11:17:13.145Z,43.60
2018-12-13T11:19:40.584Z,43.50
2018-12-13T11:22:08.058Z,43.80
2018-12-13T11:24:35.749Z,42.80
2018-12-13T11:30:25.480Z,43.40
2018-12-13T11:32:52.958Z,42.70
2018-12-13T11:35:20.433Z,44.80
2018-12-13T11:37:47.892Z,44.50
2018-12-13T11:40:15.365Z,44.80
2018-12-13T11:42:42.835Z,44.40
2018-12-13T11:45:10.472Z,42.40
2018-12-13T11:47:37.947Z,43.00
2018-12-13T11:50:05.684Z,42.70
2018-12-13T11:52:33.165Z,43.60
2018-12-13T11:58:01.801Z,42.20
2018-12-13T12:00:29.341Z,42.40
2018-12-13T12:02:56.797Z,41.50
2018-12-13T12:05:24.533Z,42.10
2018-12-13T12:07:51.993Z,39.80
2018-12-13T12:10:19.464Z,44.90
2018-12-13T12:12:46.925Z,43.90
2018-12-13T12:15:14.468Z,44.70
2018-12-13T12:17:41.933Z,42.30
2018-12-13T12:20:09.481Z,45.50
2018-12-13T12:22:36.932Z,43.80
2018-12-13T12:25:05.651Z,49.30
2018-12-13T12:27:33.178Z,46.20
2018-12-13T12:30:00.658Z,44.70
2018-12-13T12:32:28.189Z,45.30
2018-12-13T12:34:55.660Z,47.50
2018-12-13T12:37:23.140Z,46.30
2018-12-13T12:39:50.635Z,45.50
2018-12-13T12:42:18.098Z,46.30
2018-12-13T12:44:45.572Z,45.70
2018-12-13T12:47:13.028Z,45.50
2018-12-13T12:49:40.505Z,43.40
2018-12-13T12:52:07.963Z,46.80
2018-12-13T12:54:35.440Z,46.80
2018-12-13T12:57:02.905Z,46.80
2018-12-13T12:59:30.376Z,48.10
2018-12-13T13:01:57.849Z,47.00
2018-12-13T13:04:25.600Z,48.20
2018-12-13T13:06:53.057Z,46.90
2018-12-13T13:09:25.045Z,45.00
2018-12-13T13:11:50.011Z,45.10
2018-12-13T13:14:17.487Z,46.70
2018-12-13T13:16:44.948Z,45.50
2018-12-13T13:19:12.424Z,44.40
2018-12-13T13:21:39.885Z,46.30
2018-12-13T13:24:07.365Z,46.00
2018-12-13T13:26:34.838Z,46.50
2018-12-13T13:29:02.383Z,45.70
2018-12-13T13:31:29.916Z,44.80
2018-12-13T13:33:57.472Z,47.10
2018-12-13T13:36:25.080Z,46.50
2018-12-13T13:38:52.546Z,47.00
2018-12-13T13:41:20.020Z,47.70
2018-12-13T13:43:47.493Z,47.90
2018-12-13T13:46:14.963Z,48.50
2018-12-13T13:48:42.445Z,47.00
2018-12-13T13:51:09.985Z,47.70
2018-12-13T13:53:37.449Z,45.90
2018-12-13T13:56:04.928Z,45.80
2018-12-13T13:58:32.388Z,47.70
2018-12-13T14:00:59.865Z,47.90
2018-12-13T14:03:27.325Z,47.80
2018-12-13T14:05:54.800Z,47.80
2018-12-13T14:08:22.273Z,46.80
2018-12-13T14:10:49.740Z,47.40
2018-12-13T14:13:17.224Z,47.80
2018-12-13T14:15:44.702Z,47.90
2018-12-13T14:18:12.167Z,48.40
2018-12-13T14:20:39.640Z,49.60
2018-12-13T14:23:07.098Z,47.80
2018-12-13T14:25:34.569Z,47.80
2018-12-13T14:28:02.041Z,47.70
2018-12-13T14:30:29.525Z,46.80
2018-12-13T14:32:56.984Z,47.70
2018-12-13T14:35:24.448Z,46.50
2018-12-13T14:37:51.912Z,45.90
2018-12-13T14:40:19.394Z,47.70
2018-12-13T14:42:46.847Z,47.70
2018-12-13T14:45:15.265Z,47.70
2018-12-13T14:47:42.728Z,47.90
2018-12-13T14:50:10.216Z,45.60
2018-12-13T14:52:37.665Z,48.80
2018-12-13T14:55:05.276Z,47.60
2018-12-13T14:57:32.732Z,48.40
2018-12-13T15:00:00.327Z,45.40
2018-12-13T15:02:27.860Z,48.20
2018-12-13T15:04:55.709Z,48.30
2018-12-13T15:07:23.185Z,47.60
2018-12-13T15:09:51.219Z,47.50
2018-12-13T15:12:18.828Z,47.70
2018-12-13T15:14:46.296Z,49.30
2018-12-13T15:17:13.771Z,47.50
2018-12-13T15:19:41.229Z,47.50
2018-12-13T15:22:08.705Z,49.30
2018-12-13T15:24:36.181Z,48.90
2018-12-13T15:27:03.665Z,47.60
2018-12-13T15:29:31.121Z,47.20
2018-12-13T15:31:59.461Z,48.30
2018-12-13T15:34:27.429Z,48.80
2018-12-13T15:36:54.901Z,47.50
2018-12-13T15:39:22.375Z,47.70
2018-12-13T15:41:49.857Z,49.40
2018-12-13T15:44:17.315Z,49.20
2018-12-13T15:46:44.797Z,48.90
2018-12-13T15:49:12.252Z,47.50
2018-12-13T15:51:39.768Z,48.20
2018-12-13T15:54:07.219Z,47.80
2018-12-13T15:56:34.699Z,47.50
2018-12-13T15:59:02.160Z,49.10
2018-12-13T16:01:29.637Z,48.30
2018-12-13T16:03:57.336Z,47.50
2018-12-13T16:06:25.129Z,49.20
2018-12-13T16:08:52.588Z,50.60
2018-12-13T16:11:20.074Z,49.40
2018-12-13T16:13:47.528Z,49.60
2018-12-13T16:16:15.140Z,48.50
2018-12-13T16:18:42.611Z,47.40
2018-12-13T16:21:10.094Z,48.50
2018-12-13T16:23:37.556Z,48.30
2018-12-13T16:26:05.036Z,49.00
2018-12-13T16:28:33.021Z,48.60
2018-12-13T16:31:00.491Z,49.60
2018-12-13T16:33:27.968Z,50.00
2018-12-13T16:35:55.480Z,48.40
2018-12-13T16:38:23.002Z,48.00
2018-12-13T16:40:50.468Z,49.50
2018-12-13T16:43:18.047Z,49.50
2018-12-13T16:45:45.504Z,49.00
2018-12-13T16:48:12.986Z,48.80
2018-12-13T16:50:40.442Z,49.00
2018-12-13T16:53:07.917Z,47.90
2018-12-13T16:55:35.384Z,50.80
2018-12-13T16:58:02.869Z,49.60
2018-12-13T17:00:30.329Z,48.90
2018-12-13T17:02:57.801Z,49.50
2018-12-13T17:05:25.264Z,50.80
2018-12-13T17:07:52.746Z,49.80
2018-12-13T17:10:20.274Z,50.90
2018-12-13T17:12:47.749Z,49.50
2018-12-13T17:15:15.209Z,50.30
2018-12-13T17:17:42.713Z,50.20
2018-12-13T17:20:10.184Z,51.90
2018-12-13T17:22:37.693Z,51.90
2018-12-13T17:25:05.152Z,52.90
2018-12-13T17:27:32.636Z,51.90
2018-12-13T17:30:00.097Z,51.50
2018-12-13T17:32:27.600Z,52.90
2018-12-13T17:34:55.061Z,49.40
2018-12-13T17:37:22.546Z,51.50
2018-12-13T17:39:50.006Z,51.70
2018-12-13T17:42:17.481Z,51.10
2018-12-13T17:44:44.947Z,50.20
2018-12-13T17:47:12.420Z,50.90
2018-12-13T17:49:43.356Z,51.30
2018-12-13T17:52:11.460Z,51.80
2018-12-13T17:54:38.920Z,51.10
2018-12-13T17:57:06.380Z,51.80
2018-12-13T17:59:33.880Z,51.00
2018-12-13T18:02:02.861Z,51.10
2018-12-13T18:04:30.436Z,50.80
2018-12-13T18:07:00.397Z,51.00
2018-12-13T18:09:27.933Z,53.10
2018-12-13T18:11:55.397Z,53.10
2018-12-13T18:14:22.891Z,51.70
2018-12-13T18:16:50.352Z,52.60
2018-12-13T18:19:17.827Z,51.60
2018-12-13T18:21:45.388Z,51.10
2018-12-13T18:24:12.872Z,52.80
2018-12-13T18:26:40.332Z,53.30
2018-12-13T18:29:07.804Z,51.70
2018-12-13T18:31:35.269Z,51.20
2018-12-13T18:34:02.740Z,52.50
2018-12-13T18:36:30.204Z,54.00
2018-12-13T18:38:57.682Z,52.40
2018-12-13T18:41:25.137Z,52.30
2018-12-13T18:43:52.873Z,52.50
2018-12-13T18:46:20.328Z,52.90
2018-12-13T18:48:47.833Z,50.30
2018-12-13T18:51:15.327Z,52.30
2018-12-13T18:53:42.804Z,51.70
2018-12-13T18:56:10.264Z,50.10
2018-12-13T18:58:37.771Z,50.20
2018-12-13T19:01:05.444Z,50.70
2018-12-13T19:03:33.009Z,51.60
2018-12-13T19:06:00.490Z,51.60
2018-12-13T19:08:28.239Z,51.60
2018-12-13T19:10:56.023Z,52.10
2018-12-13T19:13:23.498Z,52.50
2018-12-13T19:15:50.968Z,50.70
2018-12-13T19:18:18.444Z,53.60
2018-12-13T19:20:45.901Z,52.40
2018-12-13T19:23:13.377Z,51.90
2018-12-13T19:25:40.840Z,50.00
2018-12-13T19:28:08.392Z,50.70
2018-12-13T19:30:35.864Z,50.70
2018-12-13T19:33:03.392Z,51.50
2018-12-13T19:35:31.056Z,51.40
2018-12-13T19:37:58.509Z,52.50
2018-12-13T19:40:25.984Z,50.30
2018-12-13T19:42:53.441Z,51.50
2018-12-13T19:45:20.917Z,52.90
2018-12-13T19:47:48.374Z,50.70
2018-12-13T19:50:15.844Z,52.00
2018-12-13T19:52:43.296Z,51.40
2018-12-13T19:55:10.775Z,51.70
2018-12-13T19:57:38.238Z,51.60
2018-12-13T20:00:07.952Z,51.70
2018-12-13T20:02:35.461Z,52.00
2018-12-13T20:05:03.307Z,51.10
2018-12-13T20:07:30.764Z,50.70
2018-12-13T20:09:58.235Z,52.00
2018-12-13T20:12:25.774Z,51.40
2018-12-13T20:14:53.244Z,52.10
2018-12-13T20:17:20.700Z,52.70
2018-12-13T20:19:48.172Z,51.50
2018-12-13T20:22:15.637Z,51.80
2018-12-13T20:24:43.179Z,51.90
2018-12-13T20:27:10.639Z,52.10
2018-12-13T20:29:38.277Z,52.20
2018-12-13T20:32:05.736Z,52.20
2018-12-13T20:34:33.208Z,50.90
2018-12-13T20:37:00.677Z,50.30
2018-12-13T20:39:28.182Z,52.40
2018-12-13T20:41:55.633Z,51.40
2018-12-13T20:44:23.100Z,51.00
2018-12-13T20:46:50.575Z,51.10
2018-12-13T20:49:18.045Z,51.60
2018-12-13T20:51:45.715Z,52.80
2018-12-13T20:54:13.341Z,51.60
2018-12-13T20:56:40.799Z,52.20
2018-12-13T20:59:08.272Z,52.50
2018-12-13T21:01:35.733Z,52.90
2018-12-13T21:04:03.249Z,51.80
2018-12-13T21:06:30.703Z,52.50
2018-12-13T21:08:58.175Z,53.00
2018-12-13T21:11:25.940Z,51.40
2018-12-13T21:13:53.402Z,53.60
2018-12-13T21:16:20.869Z,52.00
2018-12-13T21:18:48.394Z,52.40
2018-12-13T21:21:15.871Z,53.00
2018-12-13T21:23:43.405Z,51.60
2018-12-13T21:26:10.880Z,52.60
2018-12-13T21:28:38.337Z,55.10
2018-12-13T21:31:05.808Z,53.70
2018-12-13T21:33:33.285Z,51.80
2018-12-13T21:36:00.748Z,53.10
2018-12-13T21:38:28.209Z,52.60
2018-12-13T21:40:55.685Z,51.00
2018-12-13T21:43:23.145Z,48.30
2018-12-13T21:45:50.624Z,51.10
2018-12-13T21:48:18.084Z,51.60
2018-12-13T21:50:45.554Z,50.50
2018-12-13T21:53:13.012Z,49.90
2018-12-13T21:55:40.487Z,49.50
2018-12-13T21:58:07.945Z,50.30
2018-12-13T22:00:35.417Z,49.70
2018-12-13T22:03:02.901Z,49.60
2018-12-13T22:05:30.364Z,48.30
2018-12-13T22:07:57.834Z,49.40
2018-12-13T22:10:25.287Z,50.90
2018-12-13T22:12:52.757Z,49.80
2018-12-13T22:15:20.218Z,49.60
2018-12-13T22:17:47.684Z,51.20
2018-12-13T22:20:15.149Z,50.30
2018-12-13T22:22:42.609Z,49.60
2018-12-13T22:25:10.093Z,51.30
2018-12-13T22:27:37.568Z,50.90
2018-12-13T22:30:05.874Z,50.30
2018-12-13T22:32:33.344Z,50.10
2018-12-13T22:35:00.796Z,49.80
2018-12-13T22:37:28.269Z,50.10
2018-12-13T22:39:55.734Z,49.80
2018-12-13T22:42:23.215Z,52.70
2018-12-13T22:44:50.668Z,51.90
2018-12-13T22:47:18.777Z,50.10
2018-12-13T22:49:46.257Z,50.40
2018-12-13T22:52:13.714Z,48.70
2018-12-13T22:54:41.732Z,49.70
2018-12-13T22:57:09.184Z,50.50
2018-12-13T22:59:36.687Z,50.90
2018-12-13T23:02:04.222Z,50.90
2018-12-13T23:04:31.704Z,50.50
2018-12-13T23:06:59.152Z,51.80
2018-12-13T23:09:26.620Z,52.00
2018-12-13T23:11:54.076Z,49.20
2018-12-13T23:14:21.545Z,51.60
2018-12-13T23:16:49.004Z,51.90
2018-12-13T23:19:16.489Z,52.00
2018-12-13T23:21:44.033Z,51.60
2018-12-13T23:24:11.506Z,51.60
2018-12-13T23:26:38.977Z,51.00
2018-12-13T23:29:06.456Z,51.00
2018-12-13T23:31:33.915Z,50.70
2018-12-13T23:34:01.383Z,50.00
2018-12-13T23:36:29.301Z,49.00
2018-12-13T23:38:56.784Z,50.10
2018-12-13T23:41:24.256Z,50.10
2018-12-13T23:43:51.724Z,50.00
2018-12-13T23:46:19.199Z,51.20
2018-12-13T23:48:46.653Z,50.90
2018-12-13T23:51:14.205Z,50.50
2018-12-13T23:53:41.719Z,49.10
2018-12-13T23:56:09.192Z,50.70
2018-12-13T23:58:37.461Z,51.10
